createdAt,value
2018-10-01T00:00:07.525Z,18.44
2018-10-01T00:01:16.850Z,18.45
2018-10-01T00:02:25.901Z,18.42
2018-10-01T00:03:35.406Z,18.51
2018-10-01T00:04:44.451Z,18.44
2018-10-01T00:05:53.496Z,18.37
2018-10-01T00:07:02.546Z,18.45
2018-10-01T00:08:11.314Z,18.54
2018-10-01T00:09:20.890Z,18.42
2018-10-01T00:10:29.937Z,18.51
2018-10-01T00:11:38.715Z,18.51
2018-10-01T00:12:47.489Z,18.51
2018-10-01T00:13:56.539Z,18.52
2018-10-01T00:15:05.903Z,18.48
2018-10-01T00:16:14.945Z,18.44
2018-10-01T00:17:23.721Z,18.42
2018-10-01T00:18:32.501Z,18.52
2018-10-01T00:19:41.281Z,18.42
2018-10-01T00:20:50.579Z,18.51
2018-10-01T00:21:59.624Z,18.52
2018-10-01T00:23:08.673Z,18.44
2018-10-01T00:24:17.450Z,18.5
2018-10-01T00:25:26.766Z,18.5
2018-10-01T00:26:35.791Z,18.47
2018-10-01T00:27:44.844Z,18.5
2018-10-01T00:28:53.889Z,18.45
2018-10-01T00:30:02.934Z,18.47
2018-10-01T00:31:12.538Z,18.39
2018-10-01T00:32:21.370Z,18.39
2018-10-01T00:33:30.143Z,18.45
2018-10-01T00:34:38.920Z,18.48
2018-10-01T00:35:47.696Z,18.44
2018-10-01T00:36:57.285Z,18.44
2018-10-01T00:38:06.382Z,18.45
2018-10-01T00:39:15.427Z,18.52
2018-10-01T00:40:24.204Z,18.51
2018-10-01T00:41:33.251Z,18.52
2018-10-01T00:42:42.307Z,18.5
2018-10-01T00:43:51.364Z,18.52
2018-10-01T00:45:00.419Z,18.48
2018-10-01T00:46:09.472Z,18.5
2018-10-01T00:47:18.245Z,18.45
2018-10-01T00:48:27.291Z,18.48
2018-10-01T00:49:36.340Z,18.44
2018-10-01T00:50:45.665Z,18.47
2018-10-01T00:51:54.989Z,18.44
2018-10-01T00:53:03.767Z,18.44
2018-10-01T00:54:13.363Z,18.45
2018-10-01T00:55:22.461Z,18.47
2018-10-01T00:56:31.513Z,18.48
2018-10-01T00:57:40.850Z,18.48
2018-10-01T00:58:49.904Z,18.45
2018-10-01T00:59:58.954Z,18.55
2018-10-01T01:01:08.050Z,18.37
2018-10-01T01:02:17.100Z,18.45
2018-10-01T01:03:26.697Z,18.45
2018-10-01T01:04:35.745Z,18.45
2018-10-01T01:05:45.064Z,18.39
2018-10-01T01:06:54.114Z,18.44
2018-10-01T01:08:11.205Z,18.41
2018-10-01T01:09:19.985Z,18.44
2018-10-01T01:10:28.760Z,18.37
2018-10-01T01:11:37.807Z,18.44
2018-10-01T01:12:46.836Z,18.39
2018-10-01T01:13:55.609Z,18.44
2018-10-01T01:15:05.206Z,18.36
2018-10-01T01:16:13.977Z,18.33
2018-10-01T01:17:23.029Z,18.47
2018-10-01T01:18:31.805Z,18.44
2018-10-01T01:19:40.848Z,18.39
2018-10-01T01:20:49.621Z,18.45
2018-10-01T01:21:58.668Z,18.39
2018-10-01T01:23:07.443Z,18.39
2018-10-01T01:24:16.817Z,18.39
2018-10-01T01:25:25.863Z,18.47
2018-10-01T01:26:34.637Z,18.37
2018-10-01T01:27:43.417Z,18.37
2018-10-01T01:28:52.470Z,18.32
2018-10-01T01:30:01.571Z,18.33
2018-10-01T01:31:10.895Z,18.3
2018-10-01T01:32:20.221Z,18.36
2018-10-01T01:33:29.277Z,18.35
2018-10-01T01:34:38.050Z,18.39
2018-10-01T01:35:47.075Z,18.35
2018-10-01T01:36:56.134Z,18.36
2018-10-01T01:38:05.448Z,18.37
2018-10-01T01:39:14.492Z,18.41
2018-10-01T01:40:23.276Z,18.42
2018-10-01T01:41:32.043Z,18.41
2018-10-01T01:42:40.818Z,18.32
2018-10-01T01:43:50.406Z,18.36
2018-10-01T01:44:59.182Z,18.27
2018-10-01T01:46:08.239Z,18.33
2018-10-01T01:47:17.268Z,18.37
2018-10-01T01:48:26.584Z,18.37
2018-10-01T01:49:35.901Z,18.36
2018-10-01T01:50:44.950Z,18.36
2018-10-01T01:51:53.995Z,18.41
2018-10-01T01:53:03.311Z,18.36
2018-10-01T01:54:12.357Z,18.36
2018-10-01T01:55:21.396Z,18.33
2018-10-01T01:56:30.725Z,18.32
2018-10-01T01:57:39.775Z,18.45
2018-10-01T01:58:48.799Z,18.39
2018-10-01T01:59:57.573Z,18.37
2018-10-01T02:01:06.618Z,18.37
2018-10-01T02:02:15.400Z,18.41
2018-10-01T02:03:24.448Z,18.37
2018-10-01T02:04:33.276Z,18.37
2018-10-01T02:05:42.053Z,18.37
2018-10-01T02:06:51.398Z,18.41
2018-10-01T02:08:00.445Z,18.41
2018-10-01T02:09:09.496Z,18.39
2018-10-01T02:10:18.597Z,18.39
2018-10-01T02:11:27.373Z,18.39
2018-10-01T02:12:36.153Z,18.37
2018-10-01T02:13:45.738Z,18.39
2018-10-01T02:14:55.052Z,18.51
2018-10-01T02:16:04.107Z,18.51
2018-10-01T02:17:13.428Z,18.47
2018-10-01T02:18:22.753Z,18.42
2018-10-01T02:19:31.802Z,18.48
2018-10-01T02:20:41.401Z,18.41
2018-10-01T02:21:50.226Z,18.5
2018-10-01T02:22:59.816Z,18.41
2018-10-01T02:24:08.871Z,18.42
2018-10-01T02:25:18.193Z,18.51
2018-10-01T02:26:27.513Z,18.45
2018-10-01T02:27:36.760Z,18.5
2018-10-01T02:28:45.810Z,18.42
2018-10-01T02:29:54.590Z,18.48
2018-10-01T02:31:03.907Z,18.45
2018-10-01T02:32:12.963Z,18.52
2018-10-01T02:33:21.796Z,18.47
2018-10-01T02:34:31.116Z,18.52
2018-10-01T02:35:40.440Z,18.52
2018-10-01T02:36:49.227Z,18.48
2018-10-01T02:37:58.550Z,18.47
2018-10-01T02:39:07.871Z,18.48
2018-10-01T02:40:16.932Z,18.44
2018-10-01T02:41:25.987Z,18.45
2018-10-01T02:42:35.039Z,18.48
2018-10-01T02:43:44.357Z,18.44
2018-10-01T02:44:53.403Z,18.5
2018-10-01T02:46:02.179Z,18.52
2018-10-01T02:47:11.231Z,18.51
2018-10-01T02:48:20.021Z,18.54
2018-10-01T02:49:29.081Z,18.54
2018-10-01T02:50:37.860Z,18.48
2018-10-01T02:51:46.930Z,18.55
2018-10-01T02:52:55.707Z,18.54
2018-10-01T02:54:04.757Z,18.54
2018-10-01T02:55:13.808Z,18.5
2018-10-01T02:56:23.123Z,18.5
2018-10-01T02:57:32.444Z,18.62
2018-10-01T02:58:41.223Z,18.57
2018-10-01T02:59:50.545Z,18.54
2018-10-01T03:01:00.436Z,18.52
2018-10-01T03:02:09.461Z,18.57
2018-10-01T03:03:18.793Z,18.5
2018-10-01T03:04:27.857Z,18.5
2018-10-01T03:05:36.901Z,18.51
2018-10-01T03:06:45.674Z,18.57
2018-10-01T03:07:55.513Z,18.5
2018-10-01T03:09:04.568Z,18.52
2018-10-01T03:10:13.895Z,18.57
2018-10-01T03:11:23.216Z,18.48
2018-10-01T03:12:32.607Z,18.58
2018-10-01T03:13:42.247Z,18.52
2018-10-01T03:14:51.020Z,18.57
2018-10-01T03:16:00.353Z,18.55
2018-10-01T03:17:09.423Z,18.44
2018-10-01T03:18:18.505Z,18.58
2018-10-01T03:19:27.598Z,18.5
2018-10-01T03:20:36.377Z,18.6
2018-10-01T03:21:45.420Z,18.52
2018-10-01T03:22:54.749Z,18.52
2018-10-01T03:24:03.809Z,18.54
2018-10-01T03:25:12.586Z,18.48
2018-10-01T03:26:21.635Z,18.51
2018-10-01T03:27:30.682Z,18.47
2018-10-01T03:28:39.457Z,18.48
2018-10-01T03:29:49.066Z,18.54
2018-10-01T03:30:57.851Z,18.52
2018-10-01T03:32:07.192Z,18.51
2018-10-01T03:33:16.523Z,18.54
2018-10-01T03:34:25.299Z,18.52
2018-10-01T03:35:34.620Z,18.55
2018-10-01T03:36:43.399Z,18.54
2018-10-01T03:37:52.723Z,18.44
2018-10-01T03:39:01.506Z,18.55
2018-10-01T03:40:10.668Z,18.39
2018-10-01T03:41:19.661Z,18.51
2018-10-01T03:42:29.301Z,18.55
2018-10-01T03:43:38.358Z,18.55
2018-10-01T03:44:47.137Z,18.51
2018-10-01T03:45:56.454Z,18.52
2018-10-01T03:47:05.780Z,18.45
2018-10-01T03:48:14.559Z,18.52
2018-10-01T03:49:23.335Z,18.51
2018-10-01T03:50:32.655Z,18.42
2018-10-01T03:51:41.438Z,18.51
2018-10-01T03:52:50.489Z,18.5
2018-10-01T03:53:59.546Z,18.51
2018-10-01T03:55:08.589Z,18.45
2018-10-01T03:56:17.637Z,18.51
2018-10-01T03:57:26.963Z,18.44
2018-10-01T03:58:36.558Z,18.45
2018-10-01T03:59:45.592Z,18.5
2018-10-01T04:00:54.371Z,18.54
2018-10-01T04:02:03.432Z,18.48
2018-10-01T04:03:12.914Z,18.51
2018-10-01T04:04:21.691Z,18.5
2018-10-01T04:05:30.515Z,18.42
2018-10-01T04:06:39.835Z,18.45
2018-10-01T04:07:49.427Z,18.52
2018-10-01T04:08:58.273Z,18.42
2018-10-01T04:10:06.984Z,18.52
2018-10-01T04:11:15.812Z,18.51
2018-10-01T04:12:24.866Z,18.45
2018-10-01T04:13:33.911Z,18.44
2018-10-01T04:14:42.959Z,18.47
2018-10-01T04:15:52.564Z,18.47
2018-10-01T04:17:02.481Z,18.41
2018-10-01T04:18:11.528Z,18.52
2018-10-01T04:19:20.571Z,18.48
2018-10-01T04:20:29.355Z,18.45
2018-10-01T04:21:38.405Z,18.52
2018-10-01T04:22:47.999Z,18.47
2018-10-01T04:23:57.134Z,18.5
2018-10-01T04:25:06.192Z,18.52
2018-10-01T04:26:14.975Z,18.45
2018-10-01T04:27:23.754Z,18.48
2018-10-01T04:28:32.797Z,18.48
2018-10-01T04:29:41.841Z,18.44
2018-10-01T04:30:51.179Z,18.48
2018-10-01T04:31:59.947Z,18.42
2018-10-01T04:33:09.275Z,18.42
2018-10-01T04:34:18.589Z,18.5
2018-10-01T04:35:27.643Z,18.47
2018-10-01T04:36:36.691Z,18.51
2018-10-01T04:37:45.737Z,18.39
2018-10-01T04:38:54.789Z,18.42
2018-10-01T04:40:04.165Z,18.51
2018-10-01T04:41:13.478Z,18.41
2018-10-01T04:42:22.256Z,18.39
2018-10-01T04:43:31.314Z,18.41
2018-10-01T04:44:40.896Z,18.44
2018-10-01T04:45:49.723Z,18.45
2018-10-01T04:46:58.504Z,18.47
2018-10-01T04:48:08.109Z,18.37
2018-10-01T04:49:17.160Z,18.42
2018-10-01T04:50:26.476Z,18.37
2018-10-01T04:51:35.301Z,18.41
2018-10-01T04:52:44.078Z,18.37
2018-10-01T04:53:53.123Z,18.37
2018-10-01T04:55:01.907Z,18.37
2018-10-01T04:56:11.218Z,18.37
2018-10-01T04:57:20.510Z,18.39
2018-10-01T04:58:30.320Z,18.42
2018-10-01T04:59:38.893Z,18.33
2018-10-01T05:00:47.947Z,18.42
2018-10-01T05:01:57.279Z,18.33
2018-10-01T05:03:06.653Z,18.47
2018-10-01T05:04:15.698Z,18.39
2018-10-01T05:05:24.474Z,18.42
2018-10-01T05:06:33.250Z,18.39
2018-10-01T05:07:42.307Z,18.41
2018-10-01T05:08:51.081Z,18.35
2018-10-01T05:10:00.400Z,18.41
2018-10-01T05:11:09.179Z,18.35
2018-10-01T05:12:18.768Z,18.36
2018-10-01T05:13:27.821Z,18.37
2018-10-01T05:14:36.629Z,18.36
2018-10-01T05:15:45.659Z,18.36
2018-10-01T05:16:54.423Z,18.33
2018-10-01T05:18:03.468Z,18.35
2018-10-01T05:19:12.245Z,18.32
2018-10-01T05:20:21.425Z,18.35
2018-10-01T05:21:30.747Z,18.37
2018-10-01T05:22:39.798Z,18.37
2018-10-01T05:23:48.573Z,18.36
2018-10-01T05:24:57.347Z,18.37
2018-10-01T05:26:06.659Z,18.41
2018-10-01T05:27:15.499Z,18.35
2018-10-01T05:28:24.211Z,18.42
2018-10-01T05:29:33.540Z,18.36
2018-10-01T05:30:42.319Z,18.41
2018-10-01T05:31:51.145Z,18.32
2018-10-01T05:32:59.925Z,18.29
2018-10-01T05:34:09.512Z,18.35
2018-10-01T05:35:18.829Z,18.3
2018-10-01T05:36:27.605Z,18.35
2018-10-01T05:37:36.659Z,18.35
2018-10-01T05:38:45.988Z,18.32
2018-10-01T05:39:55.311Z,18.32
2018-10-01T05:41:05.174Z,18.3
2018-10-01T05:42:14.497Z,18.35
2018-10-01T05:43:23.596Z,18.32
2018-10-01T05:44:32.366Z,18.29
2018-10-01T05:45:41.688Z,18.36
2018-10-01T05:46:50.738Z,18.29
2018-10-01T05:48:00.060Z,18.32
2018-10-01T05:49:08.885Z,18.35
2018-10-01T05:50:17.949Z,18.32
2018-10-01T05:51:26.996Z,18.32
2018-10-01T05:52:36.311Z,18.35
2018-10-01T05:53:45.090Z,18.29
2018-10-01T05:54:53.911Z,18.26
2018-10-01T05:56:03.232Z,18.2
2018-10-01T05:57:12.291Z,18.25
2018-10-01T05:58:21.066Z,18.25
2018-10-01T05:59:29.840Z,18.27
2018-10-01T06:00:38.616Z,18.3
2018-10-01T06:01:47.662Z,18.35
2018-10-01T06:02:56.990Z,18.18
2018-10-01T06:04:06.034Z,18.27
2018-10-01T06:05:15.077Z,18.23
2018-10-01T06:06:24.180Z,18.26
2018-10-01T06:07:32.958Z,18.27
2018-10-01T06:08:42.008Z,18.23
2018-10-01T06:09:50.780Z,18.2
2018-10-01T06:10:59.830Z,18.15
2018-10-01T06:12:09.404Z,18.18
2018-10-01T06:13:18.179Z,18.18
2018-10-01T06:14:26.956Z,18.23
2018-10-01T06:15:35.735Z,18.25
2018-10-01T06:16:45.054Z,18.2
2018-10-01T06:17:53.830Z,18.23
2018-10-01T06:19:02.610Z,18.25
2018-10-01T06:20:11.666Z,18.2
2018-10-01T06:21:20.716Z,18.27
2018-10-01T06:22:30.036Z,18.26
2018-10-01T06:23:38.810Z,18.25
2018-10-01T06:24:48.396Z,18.18
2018-10-01T06:25:57.172Z,18.18
2018-10-01T06:27:05.942Z,18.2
2018-10-01T06:28:15.268Z,18.21
2018-10-01T06:29:24.621Z,18.21
2018-10-01T06:30:33.399Z,18.21
2018-10-01T06:31:42.447Z,18.23
2018-10-01T06:32:51.786Z,18.2
2018-10-01T06:34:00.561Z,18.26
2018-10-01T06:35:09.659Z,18.17
2018-10-01T06:36:19.151Z,18.18
2018-10-01T06:37:27.912Z,18.17
2018-10-01T06:38:36.955Z,18.21
2018-10-01T06:39:46.320Z,18.18
2018-10-01T06:40:55.469Z,18.2
2018-10-01T06:42:04.274Z,18.2
2018-10-01T06:43:13.015Z,18.23
2018-10-01T06:44:21.787Z,18.18
2018-10-01T06:45:30.832Z,18.18
2018-10-01T06:46:39.928Z,18.21
2018-10-01T06:47:48.702Z,18.2
2018-10-01T06:48:57.475Z,18.23
2018-10-01T06:50:06.521Z,18.17
2018-10-01T06:51:15.326Z,18.23
2018-10-01T06:52:24.921Z,18.23
2018-10-01T06:53:33.969Z,18.23
2018-10-01T06:54:43.022Z,18.23
2018-10-01T06:55:52.078Z,18.25
2018-10-01T06:57:01.131Z,18.12
2018-10-01T06:58:10.192Z,18.21
2018-10-01T06:59:19.514Z,18.15
2018-10-01T07:00:28.294Z,18.2
2018-10-01T07:01:37.070Z,18.12
2018-10-01T07:02:46.110Z,18.11
2018-10-01T07:03:55.160Z,18.07
2018-10-01T07:05:04.212Z,18.17
2018-10-01T07:06:13.257Z,18.08
2018-10-01T07:07:22.042Z,18.1
2018-10-01T07:08:31.129Z,18.08
2018-10-01T07:09:40.821Z,18.05
2018-10-01T07:10:49.602Z,18.17
2018-10-01T07:11:59.025Z,18.11
2018-10-01T07:13:08.086Z,18.18
2018-10-01T07:14:17.429Z,18.1
2018-10-01T07:15:26.524Z,18.11
2018-10-01T07:16:35.464Z,18.1
2018-10-01T07:17:45.038Z,18.11
2018-10-01T07:18:54.169Z,18.08
2018-10-01T07:20:03.370Z,18.12
2018-10-01T07:21:12.759Z,18.07
2018-10-01T07:22:22.147Z,18.03
2018-10-01T07:23:31.013Z,18.05
2018-10-01T07:24:40.188Z,18.07
2018-10-01T07:25:49.652Z,18.08
2018-10-01T07:26:59.272Z,18.14
2018-10-01T07:28:08.091Z,18.1
2018-10-01T07:29:17.200Z,18.08
2018-10-01T07:30:26.011Z,18.05
2018-10-01T07:31:35.098Z,17.97
2018-10-01T07:32:44.384Z,18
2018-10-01T07:33:53.754Z,18.08
2018-10-01T07:35:03.070Z,18.02
2018-10-01T07:36:12.400Z,17.9
2018-10-01T07:37:21.723Z,17.9
2018-10-01T07:38:30.495Z,17.87
2018-10-01T07:39:39.539Z,17.9
2018-10-01T07:40:48.313Z,17.93
2018-10-01T07:41:57.099Z,17.87
2018-10-01T07:43:06.416Z,17.96
2018-10-01T07:44:15.443Z,17.87
2018-10-01T07:45:24.382Z,17.86
